sensor_id;sensor_type;location;lat;lon;timestamp;temperature;humidity
41262;DHT22;29629;52.532;13.352;2023-04-23T00:01:56;15.90;99.90
41262;DHT22;29629;52.532;13.352;2023-04-23T00:04:24;15.80;99.90
41262;DHT22;29629;52.532;13.352;2023-04-23T00:06:54;15.80;99.90
41262;DHT22;29629;52.532;13.352;2023-04-23T00:09:22;15.80;99.90
41262;DHT22;29629;52.532;13.352;2023-04-23T00:11:49;15.70;99.90
41262;DHT22;29629;52.532;13.352;2023-04-23T00:14:16;15.70;99.90
41262;DHT22;29629;52.532;13.352;2023-04-23T00:16:44;15.70;99.90
41262;DHT22;29629;52.532;13.352;2023-04-23T00:19:11;15.60;99.90
41262;DHT22;29629;52.532;13.352;2023-04-23T00:21:38;15.70;99.90
41262;DHT22;29629;52.532;13.352;2023-04-23T00:24:06;15.60;99.90
41262;DHT22;29629;52.532;13.352;2023-04-23T00:26:33;15.60;99.90
41262;DHT22;29629;52.532;13.352;2023-04-23T00:29:00;15.60;99.90
41262;DHT22;29629;52.532;13.352;2023-04-23T00:31:27;15.50;99.90
41262;DHT22;29629;52.532;13.352;2023-04-23T00:33:55;15.50;99.90
41262;DHT22;29629;52.532;13.352;2023-04-23T00:36:22;15.50;99.90
41262;DHT22;29629;52.532;13.352;2023-04-23T00:38:49;15.40;99.90
41262;DHT22;29629;52.532;13.352;2023-04-23T00:41:17;15.40;99.90
41262;DHT22;29629;52.532;13.352;2023-04-23T00:43:45;15.40;99.90
41262;DHT22;29629;52.532;13.352;2023-04-23T00:46:13;15.40;99.90
41262;DHT22;29629;52.532;13.352;2023-04-23T00:48:41;15.30;99.90
41262;DHT22;29629;52.532;13.352;2023-04-23T00:51:10;15.40;99.90
41262;DHT22;29629;52.532;13.352;2023-04-23T00:53:37;15.40;99.90
41262;DHT22;29629;52.532;13.352;2023-04-23T00:56:04;15.30;99.90
41262;DHT22;29629;52.532;13.352;2023-04-23T00:58:34;15.30;99.90
41262;DHT22;29629;52.532;13.352;2023-04-23T01:01:01;15.30;99.90
41262;DHT22;29629;52.532;13.352;2023-04-23T01:03:29;15.30;99.90
41262;DHT22;29629;52.532;13.352;2023-04-23T01:05:57;15.30;99.90
41262;DHT22;29629;52.532;13.352;2023-04-23T01:08:24;15.20;99.90
41262;DHT22;29629;52.532;13.352;2023-04-23T01:10:52;15.20;99.90
41262;DHT22;29629;52.532;13.352;2023-04-23T01:13:19;15.20;99.90
41262;DHT22;29629;52.532;13.352;2023-04-23T01:15:48;15.20;99.90
41262;DHT22;29629;52.532;13.352;2023-04-23T01:18:15;15.20;99.90
41262;DHT22;29629;52.532;13.352;2023-04-23T01:20:42;15.20;99.90
41262;DHT22;29629;52.532;13.352;2023-04-23T01:23:11;15.10;99.90
41262;DHT22;29629;52.532;13.352;2023-04-23T01:25:38;15.10;99.90
41262;DHT22;29629;52.532;13.352;2023-04-23T01:28:05;15.20;99.90
41262;DHT22;29629;52.532;13.352;2023-04-23T01:30:32;15.10;99.90
41262;DHT22;29629;52.532;13.352;2023-04-23T01:33:00;15.20;99.90
41262;DHT22;29629;52.532;13.352;2023-04-23T01:35:27;15.20;99.90
41262;DHT22;29629;52.532;13.352;2023-04-23T01:37:55;15.20;99.90
41262;DHT22;29629;52.532;13.352;2023-04-23T01:40:24;15.20;99.90
41262;DHT22;29629;52.532;13.352;2023-04-23T01:42:51;15.10;99.90
41262;DHT22;29629;52.532;13.352;2023-04-23T01:45:18;15.10;99.90
41262;DHT22;29629;52.532;13.352;2023-04-23T01:47:45;15.10;99.90
41262;DHT22;29629;52.532;13.352;2023-04-23T01:50:13;15.00;99.90
41262;DHT22;29629;52.532;13.352;2023-04-23T01:52:39;15.00;99.90
41262;DHT22;29629;52.532;13.352;2023-04-23T01:55:07;15.00;99.90
41262;DHT22;29629;52.532;13.352;2023-04-23T01:57:36;14.90;99.90
41262;DHT22;29629;52.532;13.352;2023-04-23T02:00:05;14.90;99.90
41262;DHT22;29629;52.532;13.352;2023-04-23T02:02:33;14.90;99.90
41262;DHT22;29629;52.532;13.352;2023-04-23T02:05:01;15.00;99.90
41262;DHT22;29629;52.532;13.352;2023-04-23T02:07:29;14.80;99.90
41262;DHT22;29629;52.532;13.352;2023-04-23T02:09:57;14.50;99.90
41262;DHT22;29629;52.532;13.352;2023-04-23T02:12:24;14.10;99.90
41262;DHT22;29629;52.532;13.352;2023-04-23T02:14:53;13.60;99.90
41262;DHT22;29629;52.532;13.352;2023-04-23T02:17:20;13.50;99.90
41262;DHT22;29629;52.532;13.352;2023-04-23T02:19:47;13.80;99.90
41262;DHT22;29629;52.532;13.352;2023-04-23T02:22:15;13.80;99.90
41262;DHT22;29629;52.532;13.352;2023-04-23T02:24:42;13.90;99.90
41262;DHT22;29629;52.532;13.352;2023-04-23T02:27:09;13.80;99.90
41262;DHT22;29629;52.532;13.352;2023-04-23T02:29:36;13.90;99.90
41262;DHT22;29629;52.532;13.352;2023-04-23T02:32:05;13.80;99.90
41262;DHT22;29629;52.532;13.352;2023-04-23T02:34:32;13.80;99.90
41262;DHT22;29629;52.532;13.352;2023-04-23T02:36:58;13.90;99.90
41262;DHT22;29629;52.532;13.352;2023-04-23T02:39:25;13.90;99.90
41262;DHT22;29629;52.532;13.352;2023-04-23T02:41:52;13.90;99.90
41262;DHT22;29629;52.532;13.352;2023-04-23T02:44:19;13.90;99.90
41262;DHT22;29629;52.532;13.352;2023-04-23T02:46:46;13.90;99.90
41262;DHT22;29629;52.532;13.352;2023-04-23T02:49:14;13.90;99.90
41262;DHT22;29629;52.532;13.352;2023-04-23T02:51:41;13.90;99.90
41262;DHT22;29629;52.532;13.352;2023-04-23T02:54:08;13.90;99.90
41262;DHT22;29629;52.532;13.352;2023-04-23T02:56:36;14.00;99.90
41262;DHT22;29629;52.532;13.352;2023-04-23T02:59:03;14.00;99.90
41262;DHT22;29629;52.532;13.352;2023-04-23T03:01:31;14.00;99.90
41262;DHT22;29629;52.532;13.352;2023-04-23T03:03:58;14.10;99.90
41262;DHT22;29629;52.532;13.352;2023-04-23T03:06:26;14.00;99.90
41262;DHT22;29629;52.532;13.352;2023-04-23T03:08:53;14.10;99.90
41262;DHT22;29629;52.532;13.352;2023-04-23T03:11:20;14.10;99.90
41262;DHT22;29629;52.532;13.352;2023-04-23T03:13:48;14.30;99.90
41262;DHT22;29629;52.532;13.352;2023-04-23T03:16:15;14.20;99.90
41262;DHT22;29629;52.532;13.352;2023-04-23T03:18:41;14.30;99.90
41262;DHT22;29629;52.532;13.352;2023-04-23T03:21:08;14.30;99.90
41262;DHT22;29629;52.532;13.352;2023-04-23T03:23:37;14.40;99.90
41262;DHT22;29629;52.532;13.352;2023-04-23T03:26:04;14.40;99.90
41262;DHT22;29629;52.532;13.352;2023-04-23T03:28:31;14.50;99.90
41262;DHT22;29629;52.532;13.352;2023-04-23T03:30:58;14.50;99.90
41262;DHT22;29629;52.532;13.352;2023-04-23T03:33:25;14.50;99.90
41262;DHT22;29629;52.532;13.352;2023-04-23T03:35:52;14.50;99.90
41262;DHT22;29629;52.532;13.352;2023-04-23T03:38:19;14.50;99.90
41262;DHT22;29629;52.532;13.352;2023-04-23T03:40:47;14.50;99.90
41262;DHT22;29629;52.532;13.352;2023-04-23T03:43:14;14.50;99.90
41262;DHT22;29629;52.532;13.352;2023-04-23T03:45:41;14.50;99.90
41262;DHT22;29629;52.532;13.352;2023-04-23T03:48:08;14.40;99.90
41262;DHT22;29629;52.532;13.352;2023-04-23T03:50:35;14.50;99.90
41262;DHT22;29629;52.532;13.352;2023-04-23T03:53:05;14.50;99.90
41262;DHT22;29629;52.532;13.352;2023-04-23T03:55:32;14.50;99.90
41262;DHT22;29629;52.532;13.352;2023-04-23T03:58:01;14.50;99.90
41262;DHT22;29629;52.532;13.352;2023-04-23T04:00:28;14.40;99.90
41262;DHT22;29629;52.532;13.352;2023-04-23T04:02:55;14.50;99.90
41262;DHT22;29629;52.532;13.352;2023-04-23T04:05:22;14.40;99.90
41262;DHT22;29629;52.532;13.352;2023-04-23T04:07:49;14.40;99.90
41262;DHT22;29629;52.532;13.352;2023-04-23T04:10:16;14.40;99.90
41262;DHT22;29629;52.532;13.352;2023-04-23T04:12:43;14.50;99.90
41262;DHT22;29629;52.532;13.352;2023-04-23T04:15:14;14.50;99.90
41262;DHT22;29629;52.532;13.352;2023-04-23T04:17:41;14.50;99.90
41262;DHT22;29629;52.532;13.352;2023-04-23T04:20:10;14.60;99.90
41262;DHT22;29629;52.532;13.352;2023-04-23T04:22:38;14.50;99.90
41262;DHT22;29629;52.532;13.352;2023-04-23T04:25:06;14.40;99.90
41262;DHT22;29629;52.532;13.352;2023-04-23T04:27:33;14.40;99.90
41262;DHT22;29629;52.532;13.352;2023-04-23T04:30:00;14.50;99.90
41262;DHT22;29629;52.532;13.352;2023-04-23T04:32:28;14.50;99.90
41262;DHT22;29629;52.532;13.352;2023-04-23T04:34:55;14.60;99.90
41262;DHT22;29629;52.532;13.352;2023-04-23T04:37:23;14.60;99.90
41262;DHT22;29629;52.532;13.352;2023-04-23T04:39:50;14.50;99.90
41262;DHT22;29629;52.532;13.352;2023-04-23T04:42:17;14.60;99.90
41262;DHT22;29629;52.532;13.352;2023-04-23T04:44:44;14.70;99.90
41262;DHT22;29629;52.532;13.352;2023-04-23T04:47:11;14.70;99.90
41262;DHT22;29629;52.532;13.352;2023-04-23T04:49:42;14.60;99.90
41262;DHT22;29629;52.532;13.352;2023-04-23T04:52:09;14.60;99.90
41262;DHT22;29629;52.532;13.352;2023-04-23T04:54:36;14.60;99.90
41262;DHT22;29629;52.532;13.352;2023-04-23T04:57:03;14.50;99.90
41262;DHT22;29629;52.532;13.352;2023-04-23T04:59:31;14.40;99.90
41262;DHT22;29629;52.532;13.352;2023-04-23T05:01:58;14.50;99.90
41262;DHT22;29629;52.532;13.352;2023-04-23T05:04:25;14.40;99.90
41262;DHT22;29629;52.532;13.352;2023-04-23T05:06:53;14.50;99.90
41262;DHT22;29629;52.532;13.352;2023-04-23T05:09:21;14.40;99.90
41262;DHT22;29629;52.532;13.352;2023-04-23T05:11:48;14.40;99.90
41262;DHT22;29629;52.532;13.352;2023-04-23T05:14:14;14.40;99.90
41262;DHT22;29629;52.532;13.352;2023-04-23T05:16:41;14.50;99.90
41262;DHT22;29629;52.532;13.352;2023-04-23T05:19:08;14.50;99.90
41262;DHT22;29629;52.532;13.352;2023-04-23T05:21:35;14.50;99.90
41262;DHT22;29629;52.532;13.352;2023-04-23T05:24:04;14.50;99.90
41262;DHT22;29629;52.532;13.352;2023-04-23T05:26:31;14.60;99.90
41262;DHT22;29629;52.532;13.352;2023-04-23T05:28:58;14.60;99.90
41262;DHT22;29629;52.532;13.352;2023-04-23T05:31:25;14.50;99.90
41262;DHT22;29629;52.532;13.352;2023-04-23T05:33:52;14.60;99.90
41262;DHT22;29629;52.532;13.352;2023-04-23T05:36:19;14.60;99.90
41262;DHT22;29629;52.532;13.352;2023-04-23T05:38:46;14.50;99.90
41262;DHT22;29629;52.532;13.352;2023-04-23T05:41:15;14.60;99.90
41262;DHT22;29629;52.532;13.352;2023-04-23T05:43:42;14.50;99.90
41262;DHT22;29629;52.532;13.352;2023-04-23T05:46:09;14.40;99.90
41262;DHT22;29629;52.532;13.352;2023-04-23T05:48:36;14.40;99.90
41262;DHT22;29629;52.532;13.352;2023-04-23T05:51:03;14.50;99.90
41262;DHT22;29629;52.532;13.352;2023-04-23T05:53:30;14.40;99.90
41262;DHT22;29629;52.532;13.352;2023-04-23T05:55:57;14.60;99.90
41262;DHT22;29629;52.532;13.352;2023-04-23T05:58:25;14.50;99.90
41262;DHT22;29629;52.532;13.352;2023-04-23T06:00:52;14.50;99.90
41262;DHT22;29629;52.532;13.352;2023-04-23T06:03:19;14.50;99.90
41262;DHT22;29629;52.532;13.352;2023-04-23T06:05:46;14.60;99.90
41262;DHT22;29629;52.532;13.352;2023-04-23T06:08:13;14.70;99.90
41262;DHT22;29629;52.532;13.352;2023-04-23T06:10:40;14.70;99.90
41262;DHT22;29629;52.532;13.352;2023-04-23T06:13:07;14.60;99.90
41262;DHT22;29629;52.532;13.352;2023-04-23T06:15:37;14.70;99.90
41262;DHT22;29629;52.532;13.352;2023-04-23T06:18:04;14.70;99.90
41262;DHT22;29629;52.532;13.352;2023-04-23T06:20:31;14.80;99.90
41262;DHT22;29629;52.532;13.352;2023-04-23T06:22:58;14.90;99.90
41262;DHT22;29629;52.532;13.352;2023-04-23T06:25:25;14.80;99.90
41262;DHT22;29629;52.532;13.352;2023-04-23T06:27:52;14.90;99.90
41262;DHT22;29629;52.532;13.352;2023-04-23T06:30:19;14.80;99.90
41262;DHT22;29629;52.532;13.352;2023-04-23T06:32:47;14.80;99.90
41262;DHT22;29629;52.532;13.352;2023-04-23T06:35:14;14.90;99.90
41262;DHT22;29629;52.532;13.352;2023-04-23T06:37:41;15.10;99.90
41262;DHT22;29629;52.532;13.352;2023-04-23T06:40:08;15.10;99.90
41262;DHT22;29629;52.532;13.352;2023-04-23T06:42:36;15.00;99.90
41262;DHT22;29629;52.532;13.352;2023-04-23T06:45:03;15.10;99.90
41262;DHT22;29629;52.532;13.352;2023-04-23T06:47:30;15.00;99.90
41262;DHT22;29629;52.532;13.352;2023-04-23T06:49:58;15.00;99.90
41262;DHT22;29629;52.532;13.352;2023-04-23T06:52:26;15.00;99.90
41262;DHT22;29629;52.532;13.352;2023-04-23T06:54:53;14.90;99.90
41262;DHT22;29629;52.532;13.352;2023-04-23T06:57:19;14.90;99.90
41262;DHT22;29629;52.532;13.352;2023-04-23T06:59:47;15.00;99.90
41262;DHT22;29629;52.532;13.352;2023-04-23T07:02:14;14.90;99.90
41262;DHT22;29629;52.532;13.352;2023-04-23T07:04:41;14.80;99.90
41262;DHT22;29629;52.532;13.352;2023-04-23T07:07:09;14.50;99.90
41262;DHT22;29629;52.532;13.352;2023-04-23T07:09:36;14.50;99.90
41262;DHT22;29629;52.532;13.352;2023-04-23T07:12:04;14.50;99.90
41262;DHT22;29629;52.532;13.352;2023-04-23T07:14:31;14.40;99.90
41262;DHT22;29629;52.532;13.352;2023-04-23T07:16:58;14.50;99.90
41262;DHT22;29629;52.532;13.352;2023-04-23T07:19:25;14.20;99.90
41262;DHT22;29629;52.532;13.352;2023-04-23T07:21:52;14.30;99.90
41262;DHT22;29629;52.532;13.352;2023-04-23T07:24:20;14.10;99.90
41262;DHT22;29629;52.532;13.352;2023-04-23T07:26:47;14.20;99.90
41262;DHT22;29629;52.532;13.352;2023-04-23T07:29:14;14.30;99.90
41262;DHT22;29629;52.532;13.352;2023-04-23T07:31:41;14.30;99.90
41262;DHT22;29629;52.532;13.352;2023-04-23T07:34:08;14.30;99.90
41262;DHT22;29629;52.532;13.352;2023-04-23T07:36:35;14.30;99.90
41262;DHT22;29629;52.532;13.352;2023-04-23T07:39:03;14.20;99.90
41262;DHT22;29629;52.532;13.352;2023-04-23T07:41:31;14.20;99.90
41262;DHT22;29629;52.532;13.352;2023-04-23T07:43:59;14.30;99.90
41262;DHT22;29629;52.532;13.352;2023-04-23T07:46:26;14.10;99.90
41262;DHT22;29629;52.532;13.352;2023-04-23T07:48:53;14.10;99.90
41262;DHT22;29629;52.532;13.352;2023-04-23T07:51:20;14.10;99.90
41262;DHT22;29629;52.532;13.352;2023-04-23T07:53:51;14.00;99.90
41262;DHT22;29629;52.532;13.352;2023-04-23T07:56:19;14.00;99.90
41262;DHT22;29629;52.532;13.352;2023-04-23T07:58:48;14.10;99.90
41262;DHT22;29629;52.532;13.352;2023-04-23T08:01:15;14.10;99.90
41262;DHT22;29629;52.532;13.352;2023-04-23T08:03:42;14.10;99.90
41262;DHT22;29629;52.532;13.352;2023-04-23T08:06:10;14.30;99.90
41262;DHT22;29629;52.532;13.352;2023-04-23T08:08:38;14.30;99.90
41262;DHT22;29629;52.532;13.352;2023-04-23T08:11:05;14.10;99.90
41262;DHT22;29629;52.532;13.352;2023-04-23T08:13:32;14.20;99.90
41262;DHT22;29629;52.532;13.352;2023-04-23T08:16:00;14.20;99.90
41262;DHT22;29629;52.532;13.352;2023-04-23T08:18:27;14.30;99.90
41262;DHT22;29629;52.532;13.352;2023-04-23T08:20:54;14.40;99.90
41262;DHT22;29629;52.532;13.352;2023-04-23T08:23:22;14.40;99.90
41262;DHT22;29629;52.532;13.352;2023-04-23T08:25:49;14.50;99.90
41262;DHT22;29629;52.532;13.352;2023-04-23T08:28:17;14.50;99.90
41262;DHT22;29629;52.532;13.352;2023-04-23T08:30:44;14.60;99.90
41262;DHT22;29629;52.532;13.352;2023-04-23T08:33:13;14.50;99.90
41262;DHT22;29629;52.532;13.352;2023-04-23T08:35:39;14.70;99.90
41262;DHT22;29629;52.532;13.352;2023-04-23T08:38:06;14.70;99.90
41262;DHT22;29629;52.532;13.352;2023-04-23T08:40:35;14.60;99.90
41262;DHT22;29629;52.532;13.352;2023-04-23T08:43:10;14.60;99.90
41262;DHT22;29629;52.532;13.352;2023-04-23T08:45:39;14.60;99.90
41262;DHT22;29629;52.532;13.352;2023-04-23T08:48:09;15.00;99.90
41262;DHT22;29629;52.532;13.352;2023-04-23T08:50:39;14.90;99.90
41262;DHT22;29629;52.532;13.352;2023-04-23T08:53:08;15.20;99.90
41262;DHT22;29629;52.532;13.352;2023-04-23T08:55:35;15.40;99.90
41262;DHT22;29629;52.532;13.352;2023-04-23T08:58:03;15.30;99.90
41262;DHT22;29629;52.532;13.352;2023-04-23T09:00:32;15.00;99.90
41262;DHT22;29629;52.532;13.352;2023-04-23T09:03:00;15.00;99.90
41262;DHT22;29629;52.532;13.352;2023-04-23T09:05:27;14.90;99.90
41262;DHT22;29629;52.532;13.352;2023-04-23T09:07:56;14.90;99.90
41262;DHT22;29629;52.532;13.352;2023-04-23T09:10:24;14.70;99.90
41262;DHT22;29629;52.532;13.352;2023-04-23T09:12:51;14.80;99.90
41262;DHT22;29629;52.532;13.352;2023-04-23T09:15:18;14.80;99.90
41262;DHT22;29629;52.532;13.352;2023-04-23T09:17:46;14.70;99.90
41262;DHT22;29629;52.532;13.352;2023-04-23T09:20:14;14.60;99.90
41262;DHT22;29629;52.532;13.352;2023-04-23T09:22:44;14.70;99.90
41262;DHT22;29629;52.532;13.352;2023-04-23T09:25:14;14.50;99.90
41262;DHT22;29629;52.532;13.352;2023-04-23T09:27:41;14.50;99.90
41262;DHT22;29629;52.532;13.352;2023-04-23T09:30:09;14.30;99.90
41262;DHT22;29629;52.532;13.352;2023-04-23T09:32:38;14.30;99.90
41262;DHT22;29629;52.532;13.352;2023-04-23T09:35:07;14.40;99.90
41262;DHT22;29629;52.532;13.352;2023-04-23T09:37:35;14.20;99.90
41262;DHT22;29629;52.532;13.352;2023-04-23T09:40:03;14.40;99.90
41262;DHT22;29629;52.532;13.352;2023-04-23T09:42:35;14.20;99.90
41262;DHT22;29629;52.532;13.352;2023-04-23T09:45:04;14.20;99.90
41262;DHT22;29629;52.532;13.352;2023-04-23T09:47:32;14.20;99.90
41262;DHT22;29629;52.532;13.352;2023-04-23T09:50:00;14.20;99.90
41262;DHT22;29629;52.532;13.352;2023-04-23T09:52:27;14.20;99.90
41262;DHT22;29629;52.532;13.352;2023-04-23T09:54:56;14.10;99.90
41262;DHT22;29629;52.532;13.352;2023-04-23T09:57:24;14.10;99.90
41262;DHT22;29629;52.532;13.352;2023-04-23T09:59:55;14.10;99.90
41262;DHT22;29629;52.532;13.352;2023-04-23T10:02:26;14.20;99.90
41262;DHT22;29629;52.532;13.352;2023-04-23T10:04:53;14.10;99.90
41262;DHT22;29629;52.532;13.352;2023-04-23T10:07:21;14.00;99.90
41262;DHT22;29629;52.532;13.352;2023-04-23T10:09:49;14.00;99.90
41262;DHT22;29629;52.532;13.352;2023-04-23T10:12:16;14.00;99.90
41262;DHT22;29629;52.532;13.352;2023-04-23T10:14:45;14.00;99.90
41262;DHT22;29629;52.532;13.352;2023-04-23T10:17:15;14.00;99.90
41262;DHT22;29629;52.532;13.352;2023-04-23T10:19:43;14.10;99.90
41262;DHT22;29629;52.532;13.352;2023-04-23T10:22:11;14.10;99.90
41262;DHT22;29629;52.532;13.352;2023-04-23T10:24:39;14.10;99.90
41262;DHT22;29629;52.532;13.352;2023-04-23T10:27:10;14.10;99.90
41262;DHT22;29629;52.532;13.352;2023-04-23T10:29:38;14.20;99.90
41262;DHT22;29629;52.532;13.352;2023-04-23T10:32:06;14.40;99.90
41262;DHT22;29629;52.532;13.352;2023-04-23T10:34:34;14.40;99.90
41262;DHT22;29629;52.532;13.352;2023-04-23T10:37:01;14.50;99.90
41262;DHT22;29629;52.532;13.352;2023-04-23T10:39:31;14.60;99.90
41262;DHT22;29629;52.532;13.352;2023-04-23T10:42:01;15.00;99.90
41262;DHT22;29629;52.532;13.352;2023-04-23T10:44:35;15.40;99.90
41262;DHT22;29629;52.532;13.352;2023-04-23T10:47:03;15.60;99.90
41262;DHT22;29629;52.532;13.352;2023-04-23T10:49:31;15.60;99.90
41262;DHT22;29629;52.532;13.352;2023-04-23T10:52:00;15.60;99.90
41262;DHT22;29629;52.532;13.352;2023-04-23T10:54:29;15.80;99.90
41262;DHT22;29629;52.532;13.352;2023-04-23T10:56:59;16.10;99.90
41262;DHT22;29629;52.532;13.352;2023-04-23T10:59:28;16.90;99.90
41262;DHT22;29629;52.532;13.352;2023-04-23T11:02:05;17.50;99.90
41262;DHT22;29629;52.532;13.352;2023-04-23T11:04:33;17.40;99.90
41262;DHT22;29629;52.532;13.352;2023-04-23T11:07:05;16.90;99.90
41262;DHT22;29629;52.532;13.352;2023-04-23T11:09:37;16.40;99.90
41262;DHT22;29629;52.532;13.352;2023-04-23T11:12:10;16.50;99.90
41262;DHT22;29629;52.532;13.352;2023-04-23T11:14:44;16.60;99.90
41262;DHT22;29629;52.532;13.352;2023-04-23T11:17:13;16.60;99.90
41262;DHT22;29629;52.532;13.352;2023-04-23T11:19:41;16.30;99.90
41262;DHT22;29629;52.532;13.352;2023-04-23T11:22:33;16.20;99.90
41262;DHT22;29629;52.532;13.352;2023-04-23T11:25:01;16.00;99.90
41262;DHT22;29629;52.532;13.352;2023-04-23T11:27:29;16.10;99.90
41262;DHT22;29629;52.532;13.352;2023-04-23T11:29:56;16.30;99.90
41262;DHT22;29629;52.532;13.352;2023-04-23T11:32:23;16.30;99.90
41262;DHT22;29629;52.532;13.352;2023-04-23T11:34:53;16.30;99.90
41262;DHT22;29629;52.532;13.352;2023-04-23T11:37:23;15.90;99.90
41262;DHT22;29629;52.532;13.352;2023-04-23T11:39:51;15.70;99.90
41262;DHT22;29629;52.532;13.352;2023-04-23T11:42:18;15.60;99.90
41262;DHT22;29629;52.532;13.352;2023-04-23T11:44:46;15.70;99.90
41262;DHT22;29629;52.532;13.352;2023-04-23T11:47:14;16.00;99.90
41262;DHT22;29629;52.532;13.352;2023-04-23T11:49:43;16.10;99.90
41262;DHT22;29629;52.532;13.352;2023-04-23T11:52:11;16.80;99.90
41262;DHT22;29629;52.532;13.352;2023-04-23T11:54:39;17.70;99.90
41262;DHT22;29629;52.532;13.352;2023-04-23T11:57:08;18.70;99.90
41262;DHT22;29629;52.532;13.352;2023-04-23T11:59:35;20.20;99.90
41262;DHT22;29629;52.532;13.352;2023-04-23T12:02:02;21.80;99.90
41262;DHT22;29629;52.532;13.352;2023-04-23T12:04:30;22.70;99.90
41262;DHT22;29629;52.532;13.352;2023-04-23T12:06:58;21.50;99.90
41262;DHT22;29629;52.532;13.352;2023-04-23T12:09:26;21.60;99.90
41262;DHT22;29629;52.532;13.352;2023-04-23T12:11:54;21.40;99.90
41262;DHT22;29629;52.532;13.352;2023-04-23T12:14:28;21.30;99.90
41262;DHT22;29629;52.532;13.352;2023-04-23T12:16:55;21.90;99.90
41262;DHT22;29629;52.532;13.352;2023-04-23T12:19:26;22.10;99.90
41262;DHT22;29629;52.532;13.352;2023-04-23T12:21:55;22.70;99.90
41262;DHT22;29629;52.532;13.352;2023-04-23T12:24:23;21.50;99.90
41262;DHT22;29629;52.532;13.352;2023-04-23T12:26:51;20.80;99.90
41262;DHT22;29629;52.532;13.352;2023-04-23T12:29:19;20.60;99.90
41262;DHT22;29629;52.532;13.352;2023-04-23T12:31:49;20.60;99.90
41262;DHT22;29629;52.532;13.352;2023-04-23T12:34:17;21.10;99.90
41262;DHT22;29629;52.532;13.352;2023-04-23T12:36:46;21.90;99.90
41262;DHT22;29629;52.532;13.352;2023-04-23T12:39:24;21.80;99.90
41262;DHT22;29629;52.532;13.352;2023-04-23T12:41:53;20.50;99.90
41262;DHT22;29629;52.532;13.352;2023-04-23T12:44:21;21.50;99.90
41262;DHT22;29629;52.532;13.352;2023-04-23T12:46:53;22.30;99.90
41262;DHT22;29629;52.532;13.352;2023-04-23T12:49:21;21.60;99.90
41262;DHT22;29629;52.532;13.352;2023-04-23T12:51:48;21.40;99.90
41262;DHT22;29629;52.532;13.352;2023-04-23T12:54:15;21.40;99.90
41262;DHT22;29629;52.532;13.352;2023-04-23T12:56:42;21.00;99.90
41262;DHT22;29629;52.532;13.352;2023-04-23T12:59:09;20.70;99.90
41262;DHT22;29629;52.532;13.352;2023-04-23T13:01:36;21.60;99.90
41262;DHT22;29629;52.532;13.352;2023-04-23T13:04:04;21.70;99.90
41262;DHT22;29629;52.532;13.352;2023-04-23T13:06:31;21.50;99.90
41262;DHT22;29629;52.532;13.352;2023-04-23T13:08:58;21.50;99.90
41262;DHT22;29629;52.532;13.352;2023-04-23T13:11:28;20.50;99.90
41262;DHT22;29629;52.532;13.352;2023-04-23T13:13:55;21.00;99.90
41262;DHT22;29629;52.532;13.352;2023-04-23T13:16:22;21.10;99.90
41262;DHT22;29629;52.532;13.352;2023-04-23T13:18:49;20.50;99.90
41262;DHT22;29629;52.532;13.352;2023-04-23T13:21:18;19.30;99.90
41262;DHT22;29629;52.532;13.352;2023-04-23T13:23:45;20.50;99.90
41262;DHT22;29629;52.532;13.352;2023-04-23T13:26:12;20.30;99.90
41262;DHT22;29629;52.532;13.352;2023-04-23T13:28:39;20.80;99.90
41262;DHT22;29629;52.532;13.352;2023-04-23T13:31:06;20.40;99.90
41262;DHT22;29629;52.532;13.352;2023-04-23T13:33:33;20.50;99.90
41262;DHT22;29629;52.532;13.352;2023-04-23T13:36:01;20.30;99.90
41262;DHT22;29629;52.532;13.352;2023-04-23T13:38:29;21.10;99.90
41262;DHT22;29629;52.532;13.352;2023-04-23T13:40:56;20.70;99.90
41262;DHT22;29629;52.532;13.352;2023-04-23T13:43:23;20.90;99.90
41262;DHT22;29629;52.532;13.352;2023-04-23T13:45:52;20.90;99.90
41262;DHT22;29629;52.532;13.352;2023-04-23T13:48:19;20.70;99.90
41262;DHT22;29629;52.532;13.352;2023-04-23T13:50:47;21.50;99.90
41262;DHT22;29629;52.532;13.352;2023-04-23T13:53:14;22.10;99.90
41262;DHT22;29629;52.532;13.352;2023-04-23T13:55:42;21.80;99.90
41262;DHT22;29629;52.532;13.352;2023-04-23T13:58:09;21.60;99.90
41262;DHT22;29629;52.532;13.352;2023-04-23T14:00:36;20.30;99.90
41262;DHT22;29629;52.532;13.352;2023-04-23T14:03:03;20.50;99.90
41262;DHT22;29629;52.532;13.352;2023-04-23T14:05:30;20.40;99.90
41262;DHT22;29629;52.532;13.352;2023-04-23T14:07:57;20.60;99.90
41262;DHT22;29629;52.532;13.352;2023-04-23T14:10:25;20.20;99.90
41262;DHT22;29629;52.532;13.352;2023-04-23T14:12:54;19.90;99.90
41262;DHT22;29629;52.532;13.352;2023-04-23T14:15:21;19.50;99.90
41262;DHT22;29629;52.532;13.352;2023-04-23T14:17:48;19.40;99.90
41262;DHT22;29629;52.532;13.352;2023-04-23T14:20:15;18.70;99.90
41262;DHT22;29629;52.532;13.352;2023-04-23T14:22:48;19.20;99.90
41262;DHT22;29629;52.532;13.352;2023-04-23T14:25:23;19.50;99.90
41262;DHT22;29629;52.532;13.352;2023-04-23T14:27:54;19.70;99.90
41262;DHT22;29629;52.532;13.352;2023-04-23T14:30:21;19.30;99.90
41262;DHT22;29629;52.532;13.352;2023-04-23T14:32:50;19.40;99.90
41262;DHT22;29629;52.532;13.352;2023-04-23T14:35:19;19.50;99.90
41262;DHT22;29629;52.532;13.352;2023-04-23T14:37:46;19.50;99.90
41262;DHT22;29629;52.532;13.352;2023-04-23T14:40:13;19.60;99.90
41262;DHT22;29629;52.532;13.352;2023-04-23T14:42:44;19.50;99.90
41262;DHT22;29629;52.532;13.352;2023-04-23T14:45:14;19.40;99.90
41262;DHT22;29629;52.532;13.352;2023-04-23T14:47:42;19.50;99.90
41262;DHT22;29629;52.532;13.352;2023-04-23T14:50:13;19.30;99.90
41262;DHT22;29629;52.532;13.352;2023-04-23T14:52:41;19.30;99.90
41262;DHT22;29629;52.532;13.352;2023-04-23T14:55:09;19.50;99.90
41262;DHT22;29629;52.532;13.352;2023-04-23T14:57:36;19.50;99.90
41262;DHT22;29629;52.532;13.352;2023-04-23T15:00:04;19.60;99.90
41262;DHT22;29629;52.532;13.352;2023-04-23T15:02:34;19.60;99.90
41262;DHT22;29629;52.532;13.352;2023-04-23T15:05:01;19.60;99.90
41262;DHT22;29629;52.532;13.352;2023-04-23T15:07:28;19.60;99.90
41262;DHT22;29629;52.532;13.352;2023-04-23T15:09:57;19.60;99.90
41262;DHT22;29629;52.532;13.352;2023-04-23T15:12:42;19.00;99.90
41262;DHT22;29629;52.532;13.352;2023-04-23T15:15:15;19.00;99.90
41262;DHT22;29629;52.532;13.352;2023-04-23T15:17:47;19.00;99.90
41262;DHT22;29629;52.532;13.352;2023-04-23T15:20:14;19.20;99.90